Mc Entire JNGB Airport
KMMT : now visible

Airfield :











YOU CAN JOIN US ON...

 
LOGIN :

Register | Disclaimer

   EN    FR    IT 

 









Legend :    VFR   Marginal VFR   IFR   Intensive IFR   Very Intensive IFR
Visi :
Ceiling :
>= 8 km
>= 3000ft
5 to 8 km
1000 to 3000 ft
1500m to 5 km
500 to 1000 ft
800 to 1500m
200 to 500 ft
< 800m
< 200 ft
Symbols :   Thunderstorms  Fog  Heavy snow  Heavy precipitations  Wind > 20 kt






- Airport Elevation : 254 ft


KMMT - Mc Entire JNGB

CURRENT METAR :
  • 071506Z AUTO 19003KT 10SM FEW018 BKN033 BKN047 29/25 A3023 RMK AO2 SLP237 $

EXPIRED METARs :
  • 071456Z AUTO 21003KT 10SM BKN017 BKN047 29/25 A3023 RMK AO2 CIG 017V032 BKN017 V SCT SLP237 T02900247 50006 $
  • 071436Z AUTO 08003KT 10SM SCT017 BKN032 OVC045 28/25 A3024 RMK AO2 SLP241 $
  • 071356Z AUTO 00000KT 10SM FEW025 SCT160 28/24 A3024 RMK AO2 SLP241 T02770243 $
  • 071256Z AUTO 00000KT 10SM CLR 25/24 A3023 RMK AO2 SLP238 T02520243 $

TAF TAF KMMT
Valid from the 07 at 15:00 until the 08 at 21:00 UTC


071500Z 0715/0821 VRB06KT 9999 SCT018 BKN040 QNH3013INS
TEMPO 0715/0721 VRB10G15KT 9000 -SHRA VCTS SCT010 BKN017CB BKN035
BECMG 0810/0811 VRB06KT 3200 BR SCT018 QNH3014INS
BECMG 0814/0815 VRB06KT 8000 BR SCT025 QNH3017INS
BECMG 0816/0817 VRB06KT 9000 -SHRA SCT030 QNH3007INS
TEMPO 0817/0821 VRB12G18KT 8000 -TSRA SCT030CB SCT045 BKN065 TX32/0720Z TN20/0811Z
KZJX FIR / North America



MET'MAP, your aeronautical weather chart ! - Copyright ORBIFLY December 2007 - Disclaimer

ORBIFLY MET'MAP TEAM :

Programming & Development : Alexandra Zaïnal
Original concept : Baudouin d'Aumeries
Technical & hardware support : Manuel Goepfert
Assistance : Marc-Olivier Méhu




SOURCES & CREDITS :

   NOAA       Earth
Advisory